sensor_id;sensor_type;location;lat;lon;timestamp;P1;durP1;ratioP1;P2;durP2;ratioP2
53267;SDS011;39156;51.176;6.738;2022-09-03T00:03:02;27.27;;;25.80;;
53267;SDS011;39156;51.176;6.738;2022-09-03T00:08:32;27.60;;;26.17;;
53267;SDS011;39156;51.176;6.738;2022-09-03T00:13:40;31.25;;;29.65;;
53267;SDS011;39156;51.176;6.738;2022-09-03T00:16:24;28.33;;;26.90;;
53267;SDS011;39156;51.176;6.738;2022-09-03T00:18:56;27.45;;;26.05;;
53267;SDS011;39156;51.176;6.738;2022-09-03T00:24:07;29.02;;;27.52;;
53267;SDS011;39156;51.176;6.738;2022-09-03T00:26:38;27.65;;;26.25;;
53267;SDS011;39156;51.176;6.738;2022-09-03T00:29:26;29.48;;;27.88;;
53267;SDS011;39156;51.176;6.738;2022-09-03T00:32:02;28.63;;;27.00;;
53267;SDS011;39156;51.176;6.738;2022-09-03T00:34:39;28.38;;;26.77;;
53267;SDS011;39156;51.176;6.738;2022-09-03T00:37:10;27.20;;;25.70;;
53267;SDS011;39156;51.176;6.738;2022-09-03T00:39:36;26.67;;;25.17;;
53267;SDS011;39156;51.176;6.738;2022-09-03T00:45:31;29.45;;;27.83;;
53267;SDS011;39156;51.176;6.738;2022-09-03T00:48:21;29.15;;;27.45;;
53267;SDS011;39156;51.176;6.738;2022-09-03T00:53:55;26.70;;;25.20;;
53267;SDS011;39156;51.176;6.738;2022-09-03T00:59:13;27.35;;;25.95;;
53267;SDS011;39156;51.176;6.738;2022-09-03T01:02:10;27.33;;;25.80;;
53267;SDS011;39156;51.176;6.738;2022-09-03T01:13:56;29.52;;;27.83;;
53267;SDS011;39156;51.176;6.738;2022-09-03T01:22:56;27.15;;;25.65;;
53267;SDS011;39156;51.176;6.738;2022-09-03T01:29:33;27.48;;;26.00;;
53267;SDS011;39156;51.176;6.738;2022-09-03T01:44:24;27.70;;;26.30;;
53267;SDS011;39156;51.176;6.738;2022-09-03T01:59:31;27.85;;;26.45;;
53267;SDS011;39156;51.176;6.738;2022-09-03T02:05:05;28.38;;;26.77;;
53267;SDS011;39156;51.176;6.738;2022-09-03T02:07:53;28.20;;;26.70;;
53267;SDS011;39156;51.176;6.738;2022-09-03T02:10:26;27.40;;;26.00;;
53267;SDS011;39156;51.176;6.738;2022-09-03T02:13:00;26.55;;;25.23;;
53267;SDS011;39156;51.176;6.738;2022-09-03T02:15:51;27.50;;;26.10;;
53267;SDS011;39156;51.176;6.738;2022-09-03T02:18:26;28.58;;;27.08;;
53267;SDS011;39156;51.176;6.738;2022-09-03T02:20:58;28.02;;;26.48;;
53267;SDS011;39156;51.176;6.738;2022-09-03T02:23:25;29.88;;;28.38;;
53267;SDS011;39156;51.176;6.738;2022-09-03T02:28:22;28.27;;;26.80;;
53267;SDS011;39156;51.176;6.738;2022-09-03T02:33:15;28.75;;;27.25;;
53267;SDS011;39156;51.176;6.738;2022-09-03T02:35:41;28.53;;;26.97;;
53267;SDS011;39156;51.176;6.738;2022-09-03T02:38:18;27.80;;;26.40;;
53267;SDS011;39156;51.176;6.738;2022-09-03T02:40:49;26.73;;;25.33;;
53267;SDS011;39156;51.176;6.738;2022-09-03T02:46:16;28.85;;;27.35;;
53267;SDS011;39156;51.176;6.738;2022-09-03T02:48:47;29.97;;;28.37;;
53267;SDS011;39156;51.176;6.738;2022-09-03T02:51:13;26.90;;;25.50;;
53267;SDS011;39156;51.176;6.738;2022-09-03T02:53:38;28.67;;;26.90;;
53267;SDS011;39156;51.176;6.738;2022-09-03T02:56:04;27.90;;;26.50;;
53267;SDS011;39156;51.176;6.738;2022-09-03T02:58:30;29.83;;;27.65;;
53267;SDS011;39156;51.176;6.738;2022-09-03T03:00:56;27.52;;;25.70;;
53267;SDS011;39156;51.176;6.738;2022-09-03T03:03:22;27.63;;;26.23;;
53267;SDS011;39156;51.176;6.738;2022-09-03T03:05:49;29.45;;;27.90;;
53267;SDS011;39156;51.176;6.738;2022-09-03T03:08:19;29.25;;;27.52;;
53267;SDS011;39156;51.176;6.738;2022-09-03T03:10:48;27.45;;;26.05;;
53267;SDS011;39156;51.176;6.738;2022-09-03T03:13:16;27.13;;;25.73;;
53267;SDS011;39156;51.176;6.738;2022-09-03T03:15:42;29.37;;;27.87;;
53267;SDS011;39156;51.176;6.738;2022-09-03T03:18:08;28.58;;;27.10;;
53267;SDS011;39156;51.176;6.738;2022-09-03T03:20:38;28.52;;;27.10;;
53267;SDS011;39156;51.176;6.738;2022-09-03T03:23:05;28.75;;;27.25;;
53267;SDS011;39156;51.176;6.738;2022-09-03T03:25:32;27.88;;;26.38;;
53267;SDS011;39156;51.176;6.738;2022-09-03T03:27:59;28.33;;;26.80;;
53267;SDS011;39156;51.176;6.738;2022-09-03T03:30:25;28.17;;;26.77;;
53267;SDS011;39156;51.176;6.738;2022-09-03T03:32:52;28.70;;;27.20;;
53267;SDS011;39156;51.176;6.738;2022-09-03T03:35:18;28.33;;;26.80;;
53267;SDS011;39156;51.176;6.738;2022-09-03T03:37:44;27.80;;;26.40;;
53267;SDS011;39156;51.176;6.738;2022-09-03T03:40:10;27.10;;;25.60;;
53267;SDS011;39156;51.176;6.738;2022-09-03T03:42:37;29.52;;;28.02;;
53267;SDS011;39156;51.176;6.738;2022-09-03T03:45:03;28.58;;;27.13;;
53267;SDS011;39156;51.176;6.738;2022-09-03T03:47:30;29.20;;;27.70;;
53267;SDS011;39156;51.176;6.738;2022-09-03T03:49:56;28.15;;;26.70;;
53267;SDS011;39156;51.176;6.738;2022-09-03T03:52:22;28.58;;;27.08;;
53267;SDS011;39156;51.176;6.738;2022-09-03T03:54:49;29.05;;;27.55;;
53267;SDS011;39156;51.176;6.738;2022-09-03T03:57:16;28.38;;;26.92;;
53267;SDS011;39156;51.176;6.738;2022-09-03T03:59:48;28.38;;;26.92;;
53267;SDS011;39156;51.176;6.738;2022-09-03T04:02:14;28.10;;;26.67;;
53267;SDS011;39156;51.176;6.738;2022-09-03T04:04:41;28.92;;;27.40;;
53267;SDS011;39156;51.176;6.738;2022-09-03T04:07:07;30.02;;;28.52;;
53267;SDS011;39156;51.176;6.738;2022-09-03T04:09:33;30.63;;;29.02;;
53267;SDS011;39156;51.176;6.738;2022-09-03T04:11:59;27.53;;;26.13;;
53267;SDS011;39156;51.176;6.738;2022-09-03T04:14:25;28.20;;;26.70;;
53267;SDS011;39156;51.176;6.738;2022-09-03T04:16:51;29.27;;;27.58;;
53267;SDS011;39156;51.176;6.738;2022-09-03T04:19:17;28.75;;;27.25;;
53267;SDS011;39156;51.176;6.738;2022-09-03T04:21:43;28.43;;;26.93;;
53267;SDS011;39156;51.176;6.738;2022-09-03T04:24:09;29.33;;;27.83;;
53267;SDS011;39156;51.176;6.738;2022-09-03T04:26:35;29.03;;;27.57;;
53267;SDS011;39156;51.176;6.738;2022-09-03T04:29:03;27.58;;;26.08;;
53267;SDS011;39156;51.176;6.738;2022-09-03T04:31:34;29.65;;;28.15;;
53267;SDS011;39156;51.176;6.738;2022-09-03T04:34:01;26.65;;;25.25;;
53267;SDS011;39156;51.176;6.738;2022-09-03T04:36:28;28.15;;;26.75;;
53267;SDS011;39156;51.176;6.738;2022-09-03T04:38:55;28.25;;;26.58;;
53267;SDS011;39156;51.176;6.738;2022-09-03T04:41:24;27.92;;;26.48;;
53267;SDS011;39156;51.176;6.738;2022-09-03T04:43:53;28.27;;;26.88;;
53267;SDS011;39156;51.176;6.738;2022-09-03T04:46:21;27.85;;;26.40;;
53267;SDS011;39156;51.176;6.738;2022-09-03T04:48:50;28.77;;;27.27;;
53267;SDS011;39156;51.176;6.738;2022-09-03T04:51:18;29.25;;;27.70;;
53267;SDS011;39156;51.176;6.738;2022-09-03T04:53:51;27.38;;;25.98;;
53267;SDS011;39156;51.176;6.738;2022-09-03T04:56:22;28.17;;;26.67;;
53267;SDS011;39156;51.176;6.738;2022-09-03T04:58:54;28.58;;;27.08;;
53267;SDS011;39156;51.176;6.738;2022-09-03T05:01:22;27.90;;;26.40;;
53267;SDS011;39156;51.176;6.738;2022-09-03T05:03:52;27.70;;;26.05;;
53267;SDS011;39156;51.176;6.738;2022-09-03T05:06:19;28.10;;;26.70;;
53267;SDS011;39156;51.176;6.738;2022-09-03T05:08:48;29.33;;;27.83;;
53267;SDS011;39156;51.176;6.738;2022-09-03T05:11:15;28.80;;;27.20;;
53267;SDS011;39156;51.176;6.738;2022-09-03T05:13:41;28.52;;;26.70;;
53267;SDS011;39156;51.176;6.738;2022-09-03T05:16:08;27.07;;;25.67;;
53267;SDS011;39156;51.176;6.738;2022-09-03T05:18:36;28.58;;;27.10;;
53267;SDS011;39156;51.176;6.738;2022-09-03T05:21:03;28.20;;;26.70;;
53267;SDS011;39156;51.176;6.738;2022-09-03T05:23:30;27.02;;;25.55;;
53267;SDS011;39156;51.176;6.738;2022-09-03T05:26:00;29.13;;;27.60;;
53267;SDS011;39156;51.176;6.738;2022-09-03T05:28:29;29.58;;;28.08;;
53267;SDS011;39156;51.176;6.738;2022-09-03T05:31:02;27.88;;;26.48;;
53267;SDS011;39156;51.176;6.738;2022-09-03T05:33:41;27.27;;;25.77;;
53267;SDS011;39156;51.176;6.738;2022-09-03T05:36:19;29.65;;;27.95;;
53267;SDS011;39156;51.176;6.738;2022-09-03T05:38:47;29.25;;;27.75;;
53267;SDS011;39156;51.176;6.738;2022-09-03T05:41:14;28.25;;;26.85;;
53267;SDS011;39156;51.176;6.738;2022-09-03T05:43:42;30.45;;;28.80;;
53267;SDS011;39156;51.176;6.738;2022-09-03T05:46:09;27.50;;;26.10;;
53267;SDS011;39156;51.176;6.738;2022-09-03T05:48:38;28.05;;;26.65;;
53267;SDS011;39156;51.176;6.738;2022-09-03T05:51:07;27.48;;;25.88;;
53267;SDS011;39156;51.176;6.738;2022-09-03T05:53:40;26.90;;;25.55;;
53267;SDS011;39156;51.176;6.738;2022-09-03T05:56:09;28.70;;;27.20;;
53267;SDS011;39156;51.176;6.738;2022-09-03T05:58:39;27.83;;;26.30;;
53267;SDS011;39156;51.176;6.738;2022-09-03T06:01:08;28.08;;;26.58;;
53267;SDS011;39156;51.176;6.738;2022-09-03T06:03:45;27.60;;;26.10;;
53267;SDS011;39156;51.176;6.738;2022-09-03T06:06:14;27.67;;;26.27;;
53267;SDS011;39156;51.176;6.738;2022-09-03T06:08:41;28.83;;;27.03;;
53267;SDS011;39156;51.176;6.738;2022-09-03T06:11:08;28.27;;;26.77;;
53267;SDS011;39156;51.176;6.738;2022-09-03T06:13:35;27.67;;;26.27;;
53267;SDS011;39156;51.176;6.738;2022-09-03T06:16:03;29.42;;;27.60;;
53267;SDS011;39156;51.176;6.738;2022-09-03T06:18:31;27.65;;;26.10;;
53267;SDS011;39156;51.176;6.738;2022-09-03T06:20:57;29.23;;;27.50;;
53267;SDS011;39156;51.176;6.738;2022-09-03T06:23:26;27.75;;;26.25;;
53267;SDS011;39156;51.176;6.738;2022-09-03T06:26:00;28.08;;;26.67;;
53267;SDS011;39156;51.176;6.738;2022-09-03T06:28:41;28.30;;;26.58;;
53267;SDS011;39156;51.176;6.738;2022-09-03T06:31:09;27.65;;;26.15;;
53267;SDS011;39156;51.176;6.738;2022-09-03T06:33:37;26.77;;;25.38;;
53267;SDS011;39156;51.176;6.738;2022-09-03T06:38:33;27.17;;;25.77;;
53267;SDS011;39156;51.176;6.738;2022-09-03T06:41:00;26.83;;;25.30;;
53267;SDS011;39156;51.176;6.738;2022-09-03T06:43:29;25.95;;;24.60;;
53267;SDS011;39156;51.176;6.738;2022-09-03T06:46:02;23.67;;;22.40;;
53267;SDS011;39156;51.176;6.738;2022-09-03T06:48:31;24.98;;;23.58;;
53267;SDS011;39156;51.176;6.738;2022-09-03T06:50:59;25.52;;;24.23;;
53267;SDS011;39156;51.176;6.738;2022-09-03T06:53:34;23.55;;;22.33;;
53267;SDS011;39156;51.176;6.738;2022-09-03T06:56:06;24.65;;;23.35;;
53267;SDS011;39156;51.176;6.738;2022-09-03T06:58:38;25.00;;;23.55;;
53267;SDS011;39156;51.176;6.738;2022-09-03T07:01:15;26.02;;;24.67;;
53267;SDS011;39156;51.176;6.738;2022-09-03T07:03:44;25.48;;;24.13;;
53267;SDS011;39156;51.176;6.738;2022-09-03T07:06:13;25.92;;;24.33;;
53267;SDS011;39156;51.176;6.738;2022-09-03T07:08:41;24.35;;;23.05;;
53267;SDS011;39156;51.176;6.738;2022-09-03T07:11:09;24.95;;;23.65;;
53267;SDS011;39156;51.176;6.738;2022-09-03T07:13:38;25.00;;;23.70;;
53267;SDS011;39156;51.176;6.738;2022-09-03T07:16:10;24.42;;;23.02;;
53267;SDS011;39156;51.176;6.738;2022-09-03T07:18:39;25.23;;;23.80;;
53267;SDS011;39156;51.176;6.738;2022-09-03T07:21:09;26.17;;;24.77;;
53267;SDS011;39156;51.176;6.738;2022-09-03T07:23:38;26.70;;;25.20;;
53267;SDS011;39156;51.176;6.738;2022-09-03T07:26:06;27.35;;;25.63;;
53267;SDS011;39156;51.176;6.738;2022-09-03T07:28:35;26.35;;;25.02;;
53267;SDS011;39156;51.176;6.738;2022-09-03T07:31:06;25.48;;;24.17;;
53267;SDS011;39156;51.176;6.738;2022-09-03T07:33:40;26.95;;;25.55;;
53267;SDS011;39156;51.176;6.738;2022-09-03T07:36:07;27.33;;;25.92;;
53267;SDS011;39156;51.176;6.738;2022-09-03T07:38:38;27.95;;;26.35;;
53267;SDS011;39156;51.176;6.738;2022-09-03T07:43:33;26.50;;;25.00;;
53267;SDS011;39156;51.176;6.738;2022-09-03T07:46:05;26.15;;;24.75;;
53267;SDS011;39156;51.176;6.738;2022-09-03T07:48:32;27.65;;;26.08;;
53267;SDS011;39156;51.176;6.738;2022-09-03T07:50:58;26.27;;;24.88;;
53267;SDS011;39156;51.176;6.738;2022-09-03T07:53:27;26.60;;;25.02;;
53267;SDS011;39156;51.176;6.738;2022-09-03T07:58:30;26.13;;;24.60;;
53267;SDS011;39156;51.176;6.738;2022-09-03T08:00:57;27.77;;;26.27;;
53267;SDS011;39156;51.176;6.738;2022-09-03T08:03:23;27.27;;;25.83;;
53267;SDS011;39156;51.176;6.738;2022-09-03T08:05:49;25.63;;;24.33;;
53267;SDS011;39156;51.176;6.738;2022-09-03T08:08:15;25.80;;;24.42;;
53267;SDS011;39156;51.176;6.738;2022-09-03T08:10:41;27.15;;;25.23;;
53267;SDS011;39156;51.176;6.738;2022-09-03T08:13:07;26.88;;;25.08;;
53267;SDS011;39156;51.176;6.738;2022-09-03T08:15:34;24.95;;;23.30;;
53267;SDS011;39156;51.176;6.738;2022-09-03T08:18:01;24.67;;;23.08;;
53267;SDS011;39156;51.176;6.738;2022-09-03T08:20:27;24.20;;;22.80;;
53267;SDS011;39156;51.176;6.738;2022-09-03T08:23:02;24.50;;;23.10;;
53267;SDS011;39156;51.176;6.738;2022-09-03T08:25:29;25.50;;;23.58;;
53267;SDS011;39156;51.176;6.738;2022-09-03T08:27:58;23.55;;;22.35;;
53267;SDS011;39156;51.176;6.738;2022-09-03T08:30:24;24.70;;;23.40;;
53267;SDS011;39156;51.176;6.738;2022-09-03T08:32:51;23.20;;;22.00;;
53267;SDS011;39156;51.176;6.738;2022-09-03T08:35:17;24.48;;;23.05;;
53267;SDS011;39156;51.176;6.738;2022-09-03T08:37:43;25.23;;;23.88;;
53267;SDS011;39156;51.176;6.738;2022-09-03T08:40:08;25.98;;;24.48;;
53267;SDS011;39156;51.176;6.738;2022-09-03T08:45:29;27.48;;;25.45;;
53267;SDS011;39156;51.176;6.738;2022-09-03T08:48:06;25.83;;;23.35;;
53267;SDS011;39156;51.176;6.738;2022-09-03T08:50:43;25.90;;;24.50;;
53267;SDS011;39156;51.176;6.738;2022-09-03T08:53:19;24.30;;;22.85;;
53267;SDS011;39156;51.176;6.738;2022-09-03T08:55:56;24.60;;;23.30;;
53267;SDS011;39156;51.176;6.738;2022-09-03T08:58:29;23.83;;;22.55;;
53267;SDS011;39156;51.176;6.738;2022-09-03T09:09:32;22.92;;;21.63;;
53267;SDS011;39156;51.176;6.738;2022-09-03T09:15:12;21.52;;;20.23;;
53267;SDS011;39156;51.176;6.738;2022-09-03T09:21:16;21.88;;;20.63;;
53267;SDS011;39156;51.176;6.738;2022-09-03T09:23:56;21.17;;;19.98;;
53267;SDS011;39156;51.176;6.738;2022-09-03T09:26:34;21.58;;;20.05;;
53267;SDS011;39156;51.176;6.738;2022-09-03T09:29:01;21.13;;;19.92;;
53267;SDS011;39156;51.176;6.738;2022-09-03T09:31:34;20.92;;;19.52;;
53267;SDS011;39156;51.176;6.738;2022-09-03T09:34:05;21.08;;;19.77;;
53267;SDS011;39156;51.176;6.738;2022-09-03T09:36:37;20.80;;;19.70;;
53267;SDS011;39156;51.176;6.738;2022-09-03T09:39:17;21.15;;;19.95;;
53267;SDS011;39156;51.176;6.738;2022-09-03T09:41:55;21.10;;;19.92;;
53267;SDS011;39156;51.176;6.738;2022-09-03T09:44:24;22.50;;;21.15;;
53267;SDS011;39156;51.176;6.738;2022-09-03T09:46:50;22.55;;;21.35;;
53267;SDS011;39156;51.176;6.738;2022-09-03T09:52:10;21.90;;;20.70;;
53267;SDS011;39156;51.176;6.738;2022-09-03T09:54:39;22.02;;;20.83;;
53267;SDS011;39156;51.176;6.738;2022-09-03T09:57:13;22.25;;;20.95;;
53267;SDS011;39156;51.176;6.738;2022-09-03T09:59:44;22.17;;;20.83;;
53267;SDS011;39156;51.176;6.738;2022-09-03T10:02:22;21.67;;;20.55;;
53267;SDS011;39156;51.176;6.738;2022-09-03T10:04:51;23.23;;;22.02;;
53267;SDS011;39156;51.176;6.738;2022-09-03T10:10:17;22.15;;;20.85;;
53267;SDS011;39156;51.176;6.738;2022-09-03T10:13:05;22.90;;;21.70;;
53267;SDS011;39156;51.176;6.738;2022-09-03T10:18:37;22.80;;;21.42;;
53267;SDS011;39156;51.176;6.738;2022-09-03T10:24:22;23.58;;;22.20;;
53267;SDS011;39156;51.176;6.738;2022-09-03T10:27:03;24.08;;;22.33;;
53267;SDS011;39156;51.176;6.738;2022-09-03T10:29:37;23.65;;;22.27;;
53267;SDS011;39156;51.176;6.738;2022-09-03T10:35:03;25.08;;;23.58;;
53267;SDS011;39156;51.176;6.738;2022-09-03T10:40:43;25.25;;;23.80;;
53267;SDS011;39156;51.176;6.738;2022-09-03T11:01:34;26.52;;;25.02;;
53267;SDS011;39156;51.176;6.738;2022-09-03T11:04:28;26.45;;;25.05;;
53267;SDS011;39156;51.176;6.738;2022-09-03T11:07:21;26.13;;;24.73;;
53267;SDS011;39156;51.176;6.738;2022-09-03T11:12:25;25.70;;;24.20;;
53267;SDS011;39156;51.176;6.738;2022-09-03T11:15:06;25.00;;;23.70;;
53267;SDS011;39156;51.176;6.738;2022-09-03T11:17:45;25.48;;;24.08;;
53267;SDS011;39156;51.176;6.738;2022-09-03T11:20:21;25.70;;;24.10;;
53267;SDS011;39156;51.176;6.738;2022-09-03T11:22:51;27.33;;;25.52;;
53267;SDS011;39156;51.176;6.738;2022-09-03T11:25:39;26.92;;;25.52;;
53267;SDS011;39156;51.176;6.738;2022-09-03T11:28:26;25.77;;;24.38;;
53267;SDS011;39156;51.176;6.738;2022-09-03T11:31:15;26.27;;;24.88;;
53267;SDS011;39156;51.176;6.738;2022-09-03T11:34:14;26.73;;;25.33;;
53267;SDS011;39156;51.176;6.738;2022-09-03T11:39:52;25.00;;;23.70;;
53267;SDS011;39156;51.176;6.738;2022-09-03T11:42:41;25.40;;;24.10;;
53267;SDS011;39156;51.176;6.738;2022-09-03T11:45:21;26.83;;;25.42;;
53267;SDS011;39156;51.176;6.738;2022-09-03T11:47:56;24.85;;;23.52;;
53267;SDS011;39156;51.176;6.738;2022-09-03T11:55:53;25.55;;;23.92;;
53267;SDS011;39156;51.176;6.738;2022-09-03T11:58:39;26.23;;;24.40;;
53267;SDS011;39156;51.176;6.738;2022-09-03T12:01:10;27.23;;;25.73;;
53267;SDS011;39156;51.176;6.738;2022-09-03T12:03:48;25.23;;;23.85;;
53267;SDS011;39156;51.176;6.738;2022-09-03T12:12:08;27.00;;;25.35;;
53267;SDS011;39156;51.176;6.738;2022-09-03T12:18:23;26.35;;;24.95;;
53267;SDS011;39156;51.176;6.738;2022-09-03T12:23:33;26.77;;;25.30;;
53267;SDS011;39156;51.176;6.738;2022-09-03T12:26:14;28.10;;;26.50;;
53267;SDS011;39156;51.176;6.738;2022-09-03T12:28:43;27.48;;;25.95;;
53267;SDS011;39156;51.176;6.738;2022-09-03T12:31:16;26.00;;;24.55;;
53267;SDS011;39156;51.176;6.738;2022-09-03T12:33:58;25.65;;;24.25;;
53267;SDS011;39156;51.176;6.738;2022-09-03T12:39:11;26.10;;;24.70;;
53267;SDS011;39156;51.176;6.738;2022-09-03T12:41:51;26.35;;;24.30;;
53267;SDS011;39156;51.176;6.738;2022-09-03T12:49:37;27.33;;;25.93;;
53267;SDS011;39156;51.176;6.738;2022-09-03T12:52:10;27.33;;;25.90;;
53267;SDS011;39156;51.176;6.738;2022-09-03T12:58:23;27.38;;;25.77;;
53267;SDS011;39156;51.176;6.738;2022-09-03T13:01:10;27.20;;;25.75;;
53267;SDS011;39156;51.176;6.738;2022-09-03T13:03:43;27.30;;;25.80;;
53267;SDS011;39156;51.176;6.738;2022-09-03T13:06:19;29.80;;;28.25;;
53267;SDS011;39156;51.176;6.738;2022-09-03T13:08:49;26.50;;;25.10;;
53267;SDS011;39156;51.176;6.738;2022-09-03T13:11:20;25.38;;;23.88;;
53267;SDS011;39156;51.176;6.738;2022-09-03T13:13:52;28.10;;;26.60;;
53267;SDS011;39156;51.176;6.738;2022-09-03T13:22:05;26.52;;;25.10;;
53267;SDS011;39156;51.176;6.738;2022-09-03T13:25:03;26.65;;;25.10;;
53267;SDS011;39156;51.176;6.738;2022-09-03T13:33:50;26.33;;;24.92;;
53267;SDS011;39156;51.176;6.738;2022-09-03T13:36:26;27.67;;;26.20;;
53267;SDS011;39156;51.176;6.738;2022-09-03T13:38:59;26.55;;;24.95;;
53267;SDS011;39156;51.176;6.738;2022-09-03T14:03:32;25.00;;;23.58;;
53267;SDS011;39156;51.176;6.738;2022-09-03T14:06:10;27.13;;;25.73;;
53267;SDS011;39156;51.176;6.738;2022-09-03T14:12:20;26.33;;;24.83;;
53267;SDS011;39156;51.176;6.738;2022-09-03T14:20:55;26.38;;;24.98;;
53267;SDS011;39156;51.176;6.738;2022-09-03T14:26:35;26.67;;;25.27;;
53267;SDS011;39156;51.176;6.738;2022-09-03T14:29:04;25.60;;;24.10;;
53267;SDS011;39156;51.176;6.738;2022-09-03T14:31:50;25.60;;;24.20;;
53267;SDS011;39156;51.176;6.738;2022-09-03T14:41:09;25.80;;;24.42;;
53267;SDS011;39156;51.176;6.738;2022-09-03T14:47:25;25.00;;;23.60;;
53267;SDS011;39156;51.176;6.738;2022-09-03T14:50:37;25.52;;;24.23;;
53267;SDS011;39156;51.176;6.738;2022-09-03T14:56:23;25.83;;;24.52;;
53267;SDS011;39156;51.176;6.738;2022-09-03T15:02:15;27.23;;;25.73;;
53267;SDS011;39156;51.176;6.738;2022-09-03T15:08:08;25.40;;;24.10;;
53267;SDS011;39156;51.176;6.738;2022-09-03T15:10:47;25.25;;;23.77;;
53267;SDS011;39156;51.176;6.738;2022-09-03T15:19:11;25.83;;;24.42;;
53267;SDS011;39156;51.176;6.738;2022-09-03T15:25:41;25.27;;;23.88;;
53267;SDS011;39156;51.176;6.738;2022-09-03T15:28:37;26.30;;;24.90;;
53267;SDS011;39156;51.176;6.738;2022-09-03T15:31:44;26.42;;;24.92;;
53267;SDS011;39156;51.176;6.738;2022-09-03T15:37:16;25.15;;;23.85;;
53267;SDS011;39156;51.176;6.738;2022-09-03T15:39:56;25.77;;;24.08;;
53267;SDS011;39156;51.176;6.738;2022-09-03T15:42:49;26.42;;;24.73;;
53267;SDS011;39156;51.176;6.738;2022-09-03T15:45:30;26.48;;;25.10;;
53267;SDS011;39156;51.176;6.738;2022-09-03T15:51:05;26.48;;;25.10;;
53267;SDS011;39156;51.176;6.738;2022-09-03T15:54:06;27.35;;;25.85;;
53267;SDS011;39156;51.176;6.738;2022-09-03T16:03:01;28.60;;;26.95;;
53267;SDS011;39156;51.176;6.738;2022-09-03T16:05:41;26.13;;;24.73;;
53267;SDS011;39156;51.176;6.738;2022-09-03T16:08:36;27.90;;;26.40;;
53267;SDS011;39156;51.176;6.738;2022-09-03T16:13:54;26.60;;;25.20;;
53267;SDS011;39156;51.176;6.738;2022-09-03T16:16:42;27.13;;;25.67;;
53267;SDS011;39156;51.176;6.738;2022-09-03T16:19:39;28.67;;;26.75;;
53267;SDS011;39156;51.176;6.738;2022-09-03T16:22:28;26.95;;;25.55;;
53267;SDS011;39156;51.176;6.738;2022-09-03T16:45:29;27.42;;;25.92;;
53267;SDS011;39156;51.176;6.738;2022-09-03T16:48:39;25.23;;;23.77;;
53267;SDS011;39156;51.176;6.738;2022-09-03T16:51:27;25.23;;;23.90;;
53267;SDS011;39156;51.176;6.738;2022-09-03T16:54:09;26.20;;;24.45;;
53267;SDS011;39156;51.176;6.738;2022-09-03T16:56:58;26.30;;;24.85;;
53267;SDS011;39156;51.176;6.738;2022-09-03T17:06:06;26.17;;;24.77;;
53267;SDS011;39156;51.176;6.738;2022-09-03T17:08:43;27.20;;;25.67;;
53267;SDS011;39156;51.176;6.738;2022-09-03T17:15:05;25.58;;;24.15;;
53267;SDS011;39156;51.176;6.738;2022-09-03T17:17:46;26.35;;;24.85;;
53267;SDS011;39156;51.176;6.738;2022-09-03T17:23:36;27.13;;;25.63;;
53267;SDS011;39156;51.176;6.738;2022-09-03T17:26:45;27.40;;;25.90;;
53267;SDS011;39156;51.176;6.738;2022-09-03T17:30:02;27.10;;;25.70;;
53267;SDS011;39156;51.176;6.738;2022-09-03T17:32:36;28.50;;;26.90;;
53267;SDS011;39156;51.176;6.738;2022-09-03T17:38:51;27.73;;;25.67;;
53267;SDS011;39156;51.176;6.738;2022-09-03T17:41:54;27.67;;;26.17;;
53267;SDS011;39156;51.176;6.738;2022-09-03T17:56:11;25.98;;;24.67;;
53267;SDS011;39156;51.176;6.738;2022-09-03T18:04:51;27.02;;;25.52;;
53267;SDS011;39156;51.176;6.738;2022-09-03T18:13:05;27.27;;;25.67;;
53267;SDS011;39156;51.176;6.738;2022-09-03T18:15:54;28.95;;;27.35;;
53267;SDS011;39156;51.176;6.738;2022-09-03T18:18:31;27.63;;;26.13;;
53267;SDS011;39156;51.176;6.738;2022-09-03T18:21:00;28.30;;;26.63;;
53267;SDS011;39156;51.176;6.738;2022-09-03T18:23:59;28.23;;;26.63;;
53267;SDS011;39156;51.176;6.738;2022-09-03T18:27:26;28.05;;;26.42;;
53267;SDS011;39156;51.176;6.738;2022-09-03T18:30:18;27.92;;;26.42;;
53267;SDS011;39156;51.176;6.738;2022-09-03T18:33:02;27.77;;;26.33;;
53267;SDS011;39156;51.176;6.738;2022-09-03T18:35:46;28.98;;;27.48;;
53267;SDS011;39156;51.176;6.738;2022-09-03T18:38:32;28.77;;;27.27;;
53267;SDS011;39156;51.176;6.738;2022-09-03T18:51:11;28.60;;;27.00;;
53267;SDS011;39156;51.176;6.738;2022-09-03T18:54:30;28.27;;;26.67;;
53267;SDS011;39156;51.176;6.738;2022-09-03T18:57:43;27.95;;;26.45;;
53267;SDS011;39156;51.176;6.738;2022-09-03T19:00:35;29.85;;;28.20;;
53267;SDS011;39156;51.176;6.738;2022-09-03T19:03:48;28.58;;;27.08;;
53267;SDS011;39156;51.176;6.738;2022-09-03T19:13:06;28.27;;;26.77;;
53267;SDS011;39156;51.176;6.738;2022-09-03T19:22:34;30.60;;;28.80;;
53267;SDS011;39156;51.176;6.738;2022-09-03T19:25:24;29.33;;;27.80;;
53267;SDS011;39156;51.176;6.738;2022-09-03T19:34:18;28.95;;;27.35;;
53267;SDS011;39156;51.176;6.738;2022-09-03T19:43:51;30.10;;;28.40;;
53267;SDS011;39156;51.176;6.738;2022-09-03T19:46:59;29.13;;;27.55;;
53267;SDS011;39156;51.176;6.738;2022-09-03T19:52:48;29.92;;;28.25;;
53267;SDS011;39156;51.176;6.738;2022-09-03T19:55:44;28.08;;;26.48;;
53267;SDS011;39156;51.176;6.738;2022-09-03T19:58:32;29.25;;;27.75;;
53267;SDS011;39156;51.176;6.738;2022-09-03T20:01:19;28.67;;;27.17;;
53267;SDS011;39156;51.176;6.738;2022-09-03T20:04:11;29.25;;;27.65;;
53267;SDS011;39156;51.176;6.738;2022-09-03T20:06:58;29.95;;;28.38;;
53267;SDS011;39156;51.176;6.738;2022-09-03T20:09:47;31.30;;;29.42;;
53267;SDS011;39156;51.176;6.738;2022-09-03T20:12:34;31.98;;;30.27;;
53267;SDS011;39156;51.176;6.738;2022-09-03T20:15:06;31.35;;;29.50;;
53267;SDS011;39156;51.176;6.738;2022-09-03T20:17:52;31.13;;;29.40;;
53267;SDS011;39156;51.176;6.738;2022-09-03T20:20:38;32.85;;;30.95;;
53267;SDS011;39156;51.176;6.738;2022-09-03T20:23:32;28.90;;;27.20;;
53267;SDS011;39156;51.176;6.738;2022-09-03T20:29:50;30.25;;;28.65;;
53267;SDS011;39156;51.176;6.738;2022-09-03T20:32:33;30.00;;;28.38;;
53267;SDS011;39156;51.176;6.738;2022-09-03T20:35:27;29.83;;;28.15;;
53267;SDS011;39156;51.176;6.738;2022-09-03T20:41:48;28.80;;;27.30;;
53267;SDS011;39156;51.176;6.738;2022-09-03T20:47:33;30.42;;;28.75;;
53267;SDS011;39156;51.176;6.738;2022-09-03T20:53:18;29.15;;;27.55;;
53267;SDS011;39156;51.176;6.738;2022-09-03T20:55:56;27.88;;;26.33;;
53267;SDS011;39156;51.176;6.738;2022-09-03T20:58:40;28.07;;;26.53;;
53267;SDS011;39156;51.176;6.738;2022-09-03T21:01:24;29.05;;;27.38;;
53267;SDS011;39156;51.176;6.738;2022-09-03T21:04:51;28.70;;;27.17;;
53267;SDS011;39156;51.176;6.738;2022-09-03T21:10:29;29.67;;;28.17;;
53267;SDS011;39156;51.176;6.738;2022-09-03T21:25:32;29.60;;;27.92;;
53267;SDS011;39156;51.176;6.738;2022-09-03T21:28:22;29.63;;;28.05;;
53267;SDS011;39156;51.176;6.738;2022-09-03T21:31:02;29.77;;;28.17;;
53267;SDS011;39156;51.176;6.738;2022-09-03T21:33:47;29.30;;;27.60;;
53267;SDS011;39156;51.176;6.738;2022-09-03T21:36:29;30.35;;;28.65;;
53267;SDS011;39156;51.176;6.738;2022-09-03T21:39:08;30.73;;;28.90;;
53267;SDS011;39156;51.176;6.738;2022-09-03T21:42:08;31.13;;;29.13;;